Time;durP1;ratioP1;P1;durP2;ratioP2;P2;SDS_P1;SDS_P2;PMS_P1;PMS_P2;Temp;Humidity;BMP_temperature;BMP_pressure;BME280_temperature;BME280_humidity;BME280_pressure;Samples;Min_cycle;Max_cycle;Signal;HPM_P1;HPM_P2
2021/05/05 00:01:51;;;;;;;2.45;1.30;;;;;;;9.02;69.08;98872.81;10293259;28;20083;-58
2021/05/05 00:06:56;;;;;;;2.53;1.30;;;;;;;8.96;69.01;98879.56;10296554;28;20883;-53
2021/05/05 00:11:57;;;;;;;;;;;;;;;8.97;68.97;98869.78;10290517;28;20054;-54
2021/05/05 00:16:58;;;;;;;2.13;0.95;;;;;;;9.00;68.85;98864.16;10287770;28;19952;-59
2021/05/05 00:21:59;;;;;;;2.13;1.02;;;;;;;9.00;68.40;98858.84;10299932;28;20716;-60
2021/05/05 00:27:00;;;;;;;3.08;0.90;;;;;;;8.97;67.78;98861.81;10292079;28;20511;-54
2021/05/05 00:32:01;;;;;;;2.30;0.82;;;;;;;8.90;67.54;98834.19;10290839;28;20130;-53
2021/05/05 00:37:02;;;;;;;2.00;0.88;;;;;;;9.02;67.18;98849.78;10288564;28;20047;-56
2021/05/05 00:42:03;;;;;;;3.70;0.80;;;;;;;9.01;67.04;98853.41;10290785;28;20493;-55
2021/05/05 00:47:06;;;;;;;2.28;0.80;;;;;;;8.96;66.69;98846.84;10289646;28;20065;-54
2021/05/05 00:52:08;;;;;;;1.73;0.73;;;;;;;9.11;66.68;98861.31;10287644;28;20034;-55
2021/05/05 00:57:09;;;;;;;1.80;1.02;;;;;;;9.17;66.32;98849.25;10285214;28;20572;-57
2021/05/05 01:02:11;;;;;;;1.55;0.73;;;;;;;9.02;67.31;98846.25;10287052;28;20126;-53
2021/05/05 01:07:12;;;;;;;2.88;0.90;;;;;;;8.92;67.37;98840.19;10288893;28;20504;-57
2021/05/05 01:12:15;;;;;;;1.35;0.80;;;;;;;9.00;67.37;98842.94;10286503;28;20050;-54
2021/05/05 01:17:17;;;;;;;3.78;1.20;;;;;;;8.85;68.36;98840.75;10282325;28;20450;-55
2021/05/05 01:22:19;;;;;;;3.30;0.93;;;;;;;8.83;68.46;98837.44;10282810;28;20051;-60
2021/05/05 01:27:20;;;;;;;3.25;0.98;;;;;;;8.84;68.04;98835.59;10291928;28;20578;-55
2021/05/05 01:32:21;;;;;;;3.35;1.05;;;;;;;8.84;68.86;98839.09;10287487;28;20585;-53
2021/05/05 01:37:22;;;;;;;2.05;1.05;;;;;;;8.91;68.33;98839.34;10282193;28;20074;-56
2021/05/05 01:42:23;;;;;;;2.42;1.05;;;;;;;8.84;68.29;98844.41;10286378;28;20154;-56
2021/05/05 01:47:24;;;;;;;4.47;1.17;;;;;;;8.75;69.09;98839.13;10308937;28;20086;-53
2021/05/05 01:52:25;;;;;;;2.47;1.10;;;;;;;8.79;68.93;98835.22;10291509;28;20050;-60
2021/05/05 01:57:30;;;;;;;3.33;1.50;;;;;;;8.93;68.06;98840.03;10292178;28;20484;-54
2021/05/05 02:02:32;;;;;;;1.70;1.17;;;;;;;8.88;67.63;98836.97;10294252;28;20109;-60
2021/05/05 02:07:33;;;;;;;2.85;1.40;;;;;;;8.83;67.25;98837.44;10287781;28;20087;-57
2021/05/05 02:12:34;;;;;;;4.88;1.60;;;;;;;8.87;66.41;98843.25;10284234;28;20062;-52
2021/05/05 02:17:36;;;;;;;2.95;1.17;;;;;;;8.68;66.29;98828.28;10292990;28;20129;-60
2021/05/05 02:22:40;;;;;;;4.05;1.40;;;;;;;8.73;66.25;98841.94;10280496;28;20138;-55
2021/05/05 02:27:43;;;;;;;3.17;1.38;;;;;;;8.68;65.12;98833.59;10279309;28;20062;-55
2021/05/05 02:32:45;;;;;;;3.70;1.35;;;;;;;8.77;65.09;98840.66;10282522;28;20113;-60
2021/05/05 02:37:48;;;;;;;2.25;1.00;;;;;;;8.80;65.32;98832.41;10291559;28;20054;-61
2021/05/05 02:42:49;;;;;;;3.17;0.95;;;;;;;8.84;64.85;98828.50;10289936;28;20100;-57
2021/05/05 02:47:50;;;;;;;5.75;1.35;;;;;;;8.76;64.93;98833.69;10299008;28;20129;-55
2021/05/05 02:52:51;;;;;;;5.20;1.77;;;;;;;8.75;64.91;98829.38;10291629;28;20670;-55
2021/05/05 02:57:52;;;;;;;4.95;1.20;;;;;;;8.70;64.00;98806.91;10292739;28;20189;-59
2021/05/05 03:02:53;;;;;;;5.32;1.85;;;;;;;8.69;63.49;98824.63;10296249;28;20464;-56
2021/05/05 03:07:54;;;;;;;2.40;0.90;;;;;;;8.59;62.58;98808.78;10291691;28;20053;-56
2021/05/05 03:12:55;;;;;;;5.13;1.17;;;;;;;8.53;62.06;98829.72;10282007;28;20053;-60
2021/05/05 03:17:56;;;;;;;2.83;1.20;;;;;;;8.37;60.32;98819.72;10289222;28;20129;-61
2021/05/05 03:22:57;;;;;;;2.72;0.85;;;;;;;8.36;59.75;98824.19;10287437;28;20046;-55
2021/05/05 03:27:58;;;;;;;3.83;1.33;;;;;;;8.43;59.36;98830.56;10291423;28;20042;-58
2021/05/05 03:32:59;;;;;;;4.85;1.20;;;;;;;8.51;58.64;98826.38;10287503;28;20042;-53
2021/05/05 03:38:00;;;;;;;4.32;1.15;;;;;;;8.49;58.98;98835.31;10282484;28;20157;-55
2021/05/05 03:43:02;;;;;;;2.55;0.88;;;;;;;8.36;58.60;98829.50;10284779;28;20052;-59
2021/05/05 03:48:03;;;;;;;4.97;1.75;;;;;;;8.39;58.50;98841.59;10280826;28;20454;-59
2021/05/05 03:53:04;;;;;;;3.65;1.77;;;;;;;8.40;58.14;98846.75;10288017;28;20112;-56
2021/05/05 03:58:05;;;;;;;5.28;1.35;;;;;;;8.35;58.74;98850.81;10287409;28;20042;-54
2021/05/05 04:03:06;;;;;;;4.03;1.48;;;;;;;8.34;58.33;98842.03;10285770;28;23533;-60
2021/05/05 04:08:07;;;;;;;6.43;1.08;;;;;;;8.34;58.84;98842.03;10279091;28;20054;-55
2021/05/05 04:13:08;;;;;;;3.53;1.58;;;;;;;8.37;59.09;98857.66;10307649;23;20050;-57
2021/05/05 04:18:28;;;;;;;4.63;1.30;;;;;;;8.31;59.42;98858.25;10292047;28;20047;-58
2021/05/05 04:23:47;;;;;;;7.50;1.73;;;;;;;8.24;58.57;98862.44;10293606;28;20165;-60
2021/05/05 04:28:52;;;;;;;;;;;;;;;8.13;58.79;98874.84;10290187;28;20054;-60
2021/05/05 04:33:52;;;;;;;5.38;1.17;;;;;;;8.11;59.07;98879.47;10292353;28;19928;-58
2021/05/05 04:38:53;;;;;;;4.10;1.40;;;;;;;8.18;58.63;98887.72;10290509;28;20097;-58
2021/05/05 04:43:54;;;;;;;3.72;2.13;;;;;;;8.29;58.25;98894.66;10285220;28;20042;-59
2021/05/05 04:48:55;;;;;;;4.22;1.05;;;;;;;8.12;58.89;98886.47;10296439;28;20078;-60
2021/05/05 04:53:56;;;;;;;2.60;1.10;;;;;;;8.14;58.65;98895.09;10294658;28;20054;-60
2021/05/05 04:58:57;;;;;;;3.83;1.30;;;;;;;8.13;59.12;98896.06;10293264;28;20491;-58
2021/05/05 05:03:58;;;;;;;4.03;1.25;;;;;;;8.26;58.02;98881.69;10280058;28;20077;-58
2021/05/05 05:08:59;;;;;;;5.63;1.40;;;;;;;8.25;58.14;98906.53;10295554;28;20051;-60
2021/05/05 05:14:00;;;;;;;6.93;1.40;;;;;;;8.16;57.53;98918.00;10291491;28;20420;-60
2021/05/05 05:19:02;;;;;;;6.93;2.45;;;;;;;8.32;58.60;98926.19;10286247;28;20720;-60
2021/05/05 05:24:03;;;;;;;3.85;1.15;;;;;;;8.42;57.64;98934.97;10299790;28;20053;-60
2021/05/05 05:29:05;;;;;;;5.70;1.50;;;;;;;8.37;57.18;98931.06;10299196;28;20117;-59
2021/05/05 05:34:06;;;;;;;3.28;1.40;;;;;;;8.36;57.02;98940.84;10301507;28;20058;-64
2021/05/05 05:39:07;;;;;;;6.30;1.83;;;;;;;8.53;56.41;98947.28;10296292;28;20850;-59
2021/05/05 05:44:08;;;;;;;3.90;1.42;;;;;;;8.48;55.94;98939.75;10291471;28;20810;-58
2021/05/05 05:49:10;;;;;;;7.20;1.92;;;;;;;8.42;55.72;98945.59;10301091;28;20421;-59
2021/05/05 05:54:11;;;;;;;5.72;2.03;;;;;;;8.61;56.08;98962.47;10302120;28;20496;-59
2021/05/05 05:59:12;;;;;;;8.27;2.10;;;;;;;8.67;55.74;98972.50;10299412;28;20074;-59
2021/05/05 06:04:15;;;;;;;6.35;2.63;;;;;;;8.82;55.30;98971.06;10295690;28;20444;-59
2021/05/05 06:09:16;;;;;;;6.65;2.10;;;;;;;8.82;55.53;98981.69;10306883;28;21102;-59
2021/05/05 06:14:18;;;;;;;9.82;3.00;;;;;;;8.94;55.45;98981.53;10280755;28;20113;-59
2021/05/05 06:19:19;;;;;;;8.52;2.45;;;;;;;9.12;67.78;98979.78;10261098;28;20169;-64
2021/05/05 06:24:20;;;;;;;5.78;2.42;;;;;;;9.19;55.73;98983.53;10257052;28;20106;-64
2021/05/05 06:29:21;;;;;;;7.60;2.90;;;;;;;9.17;55.04;98972.22;10258246;28;20054;-58
2021/05/05 06:34:22;;;;;;;5.63;2.17;;;;;;;9.48;55.15;98969.28;10256460;28;20137;-59
2021/05/05 06:39:23;;;;;;;7.18;2.20;;;;;;;9.65;54.19;98977.44;10257779;28;20062;-58
2021/05/05 06:44:24;;;;;;;6.60;1.92;;;;;;;9.60;53.56;98983.22;10255730;28;20141;-59
2021/05/05 06:49:25;;;;;;;9.43;2.63;;;;;;;9.69;53.64;98970.84;10263880;28;20133;-59
2021/05/05 06:54:27;;;;;;;8.95;2.30;;;;;;;9.67;53.26;98999.41;10263332;28;20058;-59
2021/05/05 06:59:28;;;;;;;6.10;2.38;;;;;;;9.62;52.86;98991.03;10265684;28;20058;-59
2021/05/05 07:04:29;;;;;;;5.93;2.15;;;;;;;9.80;52.50;98999.84;10262825;28;20066;-60
2021/05/05 07:09:34;;;;;;;5.70;2.65;;;;;;;10.15;52.18;98987.63;10263590;28;20046;-59
2021/05/05 07:14:35;;;;;;;4.38;2.33;;;;;;;10.61;50.38;98998.16;10262045;28;20168;-60
2021/05/05 07:19:36;;;;;;;7.20;2.30;;;;;;;10.75;50.52;98997.63;10264350;28;20065;-60
2021/05/05 07:24:38;;;;;;;6.07;2.03;;;;;;;10.63;50.48;98984.69;10264413;28;20157;-59
2021/05/05 07:29:40;;;;;;;6.25;1.98;;;;;;;10.96;49.19;98996.44;10271176;28;21303;-60
2021/05/05 07:34:42;;;;;;;5.60;2.15;;;;;;;10.94;49.46;98999.25;10269882;28;20083;-59
2021/05/05 07:50:25;;;;;;;7.32;2.50;;;;;;;9.84;56.25;99035.78;10261659;28;20046;-60
2021/05/05 07:55:26;;;;;;;5.70;2.20;;;;;;;9.73;56.34;99043.97;10259997;28;20120;-59
2021/05/05 08:00:27;;;;;;;4.38;2.13;;;;;;;9.64;57.27;99048.34;10261679;28;20062;-59
2021/05/05 08:05:29;;;;;;;5.90;2.60;;;;;;;9.84;56.63;99043.78;10265352;28;20308;-58
2021/05/05 08:10:30;;;;;;;6.90;3.13;;;;;;;10.13;55.15;99028.63;10260103;28;20104;-59
2021/05/05 08:15:34;;;;;;;6.95;2.72;;;;;;;10.37;54.44;99038.69;10265829;28;20142;-59
2021/05/05 08:20:36;;;;;;;5.77;2.60;;;;;;;10.52;54.35;99025.69;10260489;28;20086;-59
2021/05/05 08:25:37;;;;;;;7.22;2.75;;;;;;;10.86;52.29;99009.81;10256068;28;20105;-58
2021/05/05 08:30:39;;;;;;;5.75;2.28;;;;;;;11.48;50.71;99019.50;10260006;28;20050;-60
2021/05/05 08:35:40;;;;;;;6.78;3.15;;;;;;;11.48;48.58;99017.69;10257978;28;20539;-59
2021/05/05 08:40:42;;;;;;;8.18;2.58;;;;;;;11.74;48.25;99035.44;10261783;28;20692;-59
2021/05/05 08:45:43;;;;;;;5.43;2.58;;;;;;;11.31;48.85;99027.41;10260549;28;20496;-60
2021/05/05 08:50:46;;;;;;;5.55;2.65;;;;;;;11.54;47.31;99020.69;10254584;28;20058;-58
2021/05/05 08:55:47;;;;;;;8.35;2.50;;;;;;;11.91;44.46;99001.66;10255491;28;20191;-59
2021/05/05 09:00:48;;;;;;;4.40;1.85;;;;;;;11.96;44.13;99031.38;10268269;28;20054;-58
2021/05/05 09:05:54;;;;;;;4.70;1.40;;;;;;;11.72;41.96;99015.28;10269017;28;20134;-59
2021/05/05 09:11:01;;;;;;;5.05;1.60;;;;;;;12.14;42.29;99011.75;10264612;28;20290;-59
2021/05/05 09:16:07;;;;;;;6.82;2.70;;;;;;;12.29;41.06;99010.09;10262994;28;20140;-59
2021/05/05 09:21:10;;;;;;;2.88;1.88;;;;;;;12.53;40.92;99016.47;10265559;28;20051;-58
2021/05/05 09:26:36;;;;;;;3.13;1.10;;;;;;;12.33;38.90;99030.13;10266320;28;20542;-59
2021/05/05 09:31:39;;;;;;;4.18;1.13;;;;;;;12.55;39.53;99025.97;10264118;28;20050;-59
2021/05/05 09:36:56;;;;;;;2.67;0.98;;;;;;;13.22;37.57;99021.41;10265938;28;20065;-59
2021/05/05 09:41:58;;;;;;;4.07;1.08;;;;;;;12.06;40.60;99083.75;10275808;28;20059;-60
2021/05/05 09:46:59;;;;;;;3.33;0.40;;;;;;;9.93;51.60;99142.22;10268069;28;20050;-59
2021/05/05 09:52:02;;;;;;;1.40;0.22;;;;;;;8.91;59.88;99149.00;10262431;28;21338;-58
2021/05/05 09:57:19;;;;;;;0.63;0.38;;;;;;;9.34;57.75;99150.38;10265609;28;20527;-59
2021/05/05 10:02:22;;;;;;;2.67;0.57;;;;;;;9.78;57.75;99136.56;10265738;28;20081;-59
2021/05/05 10:07:29;;;;;;;2.35;0.70;;;;;;;11.25;54.22;99121.28;10266048;28;20054;-60
2021/05/05 10:12:30;;;;;;;1.25;0.60;;;;;;;12.46;50.28;99115.06;10288625;23;20107;-56
2021/05/05 10:17:32;;;;;;;1.63;0.70;;;;;;;12.68;48.95;99129.59;10292354;28;20058;-57
2021/05/05 10:22:33;;;;;;;2.75;0.93;;;;;;;13.31;46.39;99137.97;10293633;28;20058;-58
2021/05/05 10:27:37;;;;;;;1.40;0.63;;;;;;;12.78;47.11;99152.66;10297528;28;20104;-55
2021/05/05 10:32:40;;;;;;;1.45;0.30;;;;;;;12.14;45.47;99155.78;10296467;28;20058;-60
2021/05/05 10:37:49;;;;;;;0.93;0.20;;;;;;;12.09;44.64;99144.78;10291821;28;20578;-63
2021/05/05 10:42:59;;;;;;;0.93;0.60;;;;;;;12.23;43.40;99160.16;10291890;28;20135;-60
2021/05/05 10:48:12;;;;;;;2.20;0.65;;;;;;;12.09;43.64;99158.94;10292930;28;20058;-50
2021/05/05 10:53:13;;;;;;;1.23;0.30;;;;;;;12.94;42.72;99181.19;10287057;28;20045;-55
2021/05/05 10:58:17;;;;;;;2.53;0.60;;;;;;;13.45;41.67;99171.25;10291168;28;20073;-55
2021/05/05 11:03:49;;;;;;;1.50;0.47;;;;;;;13.73;41.32;99190.41;10293025;28;20216;-57
2021/05/05 11:08:51;;;;;;;2.08;1.00;;;;;;;14.63;40.40;99212.56;10296377;28;20077;-54
2021/05/05 11:13:52;;;;;;;2.70;0.40;;;;;;;14.94;38.90;99201.84;10292219;28;20113;-52
2021/05/05 11:18:53;;;;;;;1.20;0.52;;;;;;;15.31;37.57;99205.59;10293425;28;20626;-59
2021/05/05 11:23:54;;;;;;;1.45;0.60;;;;;;;15.74;37.49;99188.94;10293642;28;20050;-54
2021/05/05 11:29:03;;;;;;;2.97;0.80;;;;;;;15.28;37.27;99202.41;10294094;28;20724;-50
2021/05/05 11:34:04;;;;;;;1.67;0.50;;;;;;;15.35;36.61;99193.47;10290966;28;20065;-58
2021/05/05 11:39:22;;;;;;;1.90;0.70;;;;;;;15.58;36.90;99199.81;10289439;28;20703;-52
2021/05/05 11:44:41;;;;;;;2.05;0.50;;;;;;;15.25;37.00;99222.38;10293126;28;20112;-56
2021/05/05 11:49:46;;;;;;;1.48;0.35;;;;;;;15.53;36.04;99241.44;10287537;28;20116;-61
2021/05/05 11:54:48;;;;;;;1.23;0.73;;;;;;;14.91;37.17;99228.97;10286857;28;20136;-50
2021/05/05 11:59:49;;;;;;;2.35;0.50;;;;;;;15.40;36.51;99225.09;10285592;28;20563;-56
2021/05/05 12:04:50;;;;;;;2.55;0.43;;;;;;;14.90;36.32;99264.00;10283269;28;20061;-58
2021/05/05 12:09:51;;;;;;;0.63;0.30;;;;;;;14.28;37.77;99257.53;10286278;28;20058;-53
2021/05/05 12:14:58;;;;;;;2.17;0.28;;;;;;;13.87;34.99;99254.91;10289516;28;20054;-52
2021/05/05 12:20:09;;;;;;;0.55;0.40;;;;;;;13.84;37.04;99288.19;10298921;28;20128;-57
2021/05/05 12:25:13;;;;;;;1.52;0.57;;;;;;;13.30;38.75;99302.00;10282033;28;20930;-55
2021/05/05 12:30:14;;;;;;;2.92;0.30;;;;;;;12.34;42.52;99314.66;10288385;28;20086;-52
2021/05/05 12:35:23;;;;;;;0.70;0.40;;;;;;;11.44;50.38;99324.56;10284027;28;20241;-51
2021/05/05 12:40:26;;;;;;;1.42;0.43;;;;;;;10.47;50.60;99342.75;10283224;28;20120;-61
2021/05/05 12:45:35;;;;;;;1.70;0.32;;;;;;;9.98;55.08;99364.09;10290737;28;21263;-57
2021/05/05 12:50:41;;;;;;;1.92;0.40;;;;;;;9.86;54.35;99336.84;10283764;28;20053;-58
2021/05/05 12:55:43;;;;;;;1.10;0.43;;;;;;;10.11;54.99;99353.19;10287453;28;20054;-53
2021/05/05 13:00:46;;;;;;;0.95;0.30;;;;;;;10.33;54.39;99351.16;10284915;28;20157;-53
2021/05/05 13:06:01;;;;;;;0.60;0.30;;;;;;;11.35;53.23;99365.47;10285735;28;20128;-53
2021/05/05 13:11:07;;;;;;;1.27;0.60;;;;;;;11.88;50.82;99369.97;10286266;28;20455;-55
2021/05/05 13:32:49;;;;;;;1.20;0.50;;;;;;;12.52;47.27;99375.13;10237286;28;20089;-56
2021/05/05 13:37:59;;;;;;;0.98;0.50;;;;;;;12.25;47.15;99382.31;10282454;28;20042;-55
2021/05/05 13:43:12;;;;;;;0.90;0.50;;;;;;;12.53;47.30;99376.81;10291852;28;20218;-57
2021/05/05 13:48:25;;;;;;;1.23;0.55;;;;;;;12.77;46.76;99385.97;10298100;28;20189;-56
2021/05/05 13:53:26;;;;;;;0.90;0.30;;;;;;;12.46;47.79;99397.13;10291435;28;20423;-55
2021/05/05 13:58:27;;;;;;;1.95;0.40;;;;;;;12.61;47.73;99371.53;10285174;28;20072;-55
2021/05/05 14:03:28;;;;;;;0.47;0.30;;;;;;;12.83;47.54;99385.31;10289877;28;21622;-57
2021/05/05 14:08:29;;;;;;;0.82;0.40;;;;;;;12.92;46.85;99371.00;10294277;28;20487;-54
2021/05/05 14:13:30;;;;;;;0.65;0.40;;;;;;;12.79;45.75;99381.28;10294649;28;20148;-58
2021/05/05 14:18:32;;;;;;;2.25;0.60;;;;;;;12.95;45.21;99378.69;10291516;28;20147;-51
2021/05/05 14:23:33;;;;;;;1.50;0.50;;;;;;;12.73;45.23;99396.13;10309400;28;20073;-55
2021/05/05 14:28:38;;;;;;;0.82;0.50;;;;;;;12.40;46.14;99411.09;10294809;28;20104;-57
2021/05/05 14:33:40;;;;;;;0.85;0.45;;;;;;;11.98;46.82;99432.09;10289164;28;20188;-52
2021/05/05 14:38:44;;;;;;;2.15;0.50;;;;;;;11.71;47.08;99448.13;10291025;28;20187;-55
2021/05/05 14:48:46;;;;;;;2.15;0.88;;;;;;;12.55;43.41;99452.25;10292260;28;20069;-61
2021/05/05 14:53:47;;;;;;;1.58;0.90;;;;;;;12.45;41.82;99440.84;10287405;28;20132;-53
2021/05/05 14:59:00;;;;;;;1.45;0.80;;;;;;;12.40;42.54;99453.78;10290580;28;20109;-54
2021/05/05 15:04:01;;;;;;;3.40;1.42;;;;;;;12.21;44.02;99439.63;10291058;28;20069;-56
2021/05/05 15:14:29;;;;;;;1.33;0.70;;;;;;;12.29;43.51;99458.38;10290517;28;20053;-52
2021/05/05 15:35:27;;;;;;;1.52;0.93;;;;;;;12.31;39.48;99440.41;10289091;28;20109;-53
2021/05/05 15:40:44;;;;;;;2.55;0.75;;;;;;;12.22;39.68;99452.00;10291116;28;20104;-61
2021/05/05 15:46:16;;;;;;;3.30;0.75;;;;;;;12.13;38.69;99459.09;10287149;28;20046;-56
2021/05/05 15:51:17;;;;;;;1.40;0.93;;;;;;;12.31;39.19;99461.75;10290643;28;20160;-54
2021/05/05 15:56:19;;;;;;;1.98;1.00;;;;;;;12.42;39.82;99463.31;10272777;28;20164;-52
2021/05/05 16:16:54;;;;;;;2.05;1.25;;;;;;;12.21;41.53;99469.00;10172834;28;20149;-62
2021/05/05 16:22:42;;;;;;;1.35;0.93;;;;;;;12.11;41.84;99470.91;10156995;28;20058;-63
2021/05/05 16:48:24;;;;;;;1.77;0.93;;;;;;;11.77;43.46;99477.72;10198210;28;20075;-61
2021/05/05 17:14:45;;;;;;;1.50;0.90;;;;;;;11.93;42.20;99461.03;10195796;28;20050;-59
2021/05/05 17:19:55;;;;;;;2.22;1.27;;;;;;;11.60;42.11;99474.00;10207191;28;20078;-63
2021/05/05 17:25:11;;;;;;;1.83;0.75;;;;;;;11.47;45.13;99494.84;10203554;28;20053;-62
2021/05/05 18:23:12;;;;;;;2.58;0.70;;;;;;;9.81;51.19;99575.63;10204644;28;20051;-63
2021/05/05 18:33:23;;;;;;;1.80;1.30;;;;;;;10.01;52.87;99565.06;10211483;28;20055;-67
2021/05/05 18:38:24;;;;;;;1.58;1.10;;;;;;;9.91;52.57;99565.06;10216232;28;20057;-62
2021/05/05 20:50:48;;;;;;;1.00;0.65;;;;;;;8.62;54.50;99694.53;10190832;28;20138;-67
2021/05/05 21:17:56;;;;;;;1.60;0.75;;;;;;;8.58;55.21;99686.94;10199239;28;20043;-60
2021/05/05 23:34:31;;;;;;;1.50;1.23;;;;;;;7.29;65.66;99651.03;10257388;28;20707;-59
